sensor_id;sensor_type;location;lat;lon;timestamp;pressure;altitude;pressure_sealevel;temperature;humidity
70323;BME280;57735;56.264;43.898;2023-06-26T00:00:24;100579.94;;;12.56;77.91
70323;BME280;57735;56.264;43.898;2023-06-26T00:02:55;100585.44;;;12.55;78.01
70323;BME280;57735;56.264;43.898;2023-06-26T00:05:26;100582.41;;;12.50;78.20
70323;BME280;57735;56.264;43.898;2023-06-26T00:08:01;100581.72;;;12.48;78.17
70323;BME280;57735;56.264;43.898;2023-06-26T00:10:32;100593.41;;;12.47;78.18
70323;BME280;57735;56.264;43.898;2023-06-26T00:13:06;100582.19;;;12.43;78.44
70323;BME280;57735;56.264;43.898;2023-06-26T00:15:36;100579.34;;;12.45;78.60
70323;BME280;57735;56.264;43.898;2023-06-26T00:18:07;100583.19;;;12.42;79.29
70323;BME280;57735;56.264;43.898;2023-06-26T00:20:38;100593.41;;;12.47;78.86
70323;BME280;57735;56.264;43.898;2023-06-26T00:23:11;100585.03;;;12.42;78.88
70323;BME280;57735;56.264;43.898;2023-06-26T00:25:44;100581.84;;;12.38;78.65
70323;BME280;57735;56.264;43.898;2023-06-26T00:28:17;100592.88;;;12.35;78.79
70323;BME280;57735;56.264;43.898;2023-06-26T00:30:47;100590.34;;;12.34;79.10
70323;BME280;57735;56.264;43.898;2023-06-26T00:33:18;100590.50;;;12.32;78.97
70323;BME280;57735;56.264;43.898;2023-06-26T00:35:49;100592.50;;;12.30;79.02
70323;BME280;57735;56.264;43.898;2023-06-26T00:38:20;100591.66;;;12.30;79.22
70323;BME280;57735;56.264;43.898;2023-06-26T00:40:51;100597.69;;;12.32;79.22
70323;BME280;57735;56.264;43.898;2023-06-26T00:43:22;100595.84;;;12.32;79.18
70323;BME280;57735;56.264;43.898;2023-06-26T00:45:53;100598.38;;;12.34;79.56
70323;BME280;57735;56.264;43.898;2023-06-26T00:48:24;100591.88;;;12.36;79.31
70323;BME280;57735;56.264;43.898;2023-06-26T00:50:55;100603.41;;;12.37;79.20
70323;BME280;57735;56.264;43.898;2023-06-26T00:53:29;100596.22;;;12.37;79.36
70323;BME280;57735;56.264;43.898;2023-06-26T00:56:02;100589.03;;;12.38;79.67
70323;BME280;57735;56.264;43.898;2023-06-26T00:58:36;100587.69;;;12.42;79.65
70323;BME280;57735;56.264;43.898;2023-06-26T01:01:09;100578.69;;;12.43;79.40
70323;BME280;57735;56.264;43.898;2023-06-26T01:03:44;100585.53;;;12.45;79.30
70323;BME280;57735;56.264;43.898;2023-06-26T01:06:20;100589.06;;;12.46;79.45
70323;BME280;57735;56.264;43.898;2023-06-26T01:08:52;100581.03;;;12.46;79.07
70323;BME280;57735;56.264;43.898;2023-06-26T01:11:23;100579.56;;;12.51;79.53
70323;BME280;57735;56.264;43.898;2023-06-26T01:13:55;100588.44;;;12.52;79.22
70323;BME280;57735;56.264;43.898;2023-06-26T01:16:28;100583.75;;;12.54;79.13
70323;BME280;57735;56.264;43.898;2023-06-26T01:19:02;100587.13;;;12.56;79.11
70323;BME280;57735;56.264;43.898;2023-06-26T01:21:42;100587.75;;;12.58;79.11
70323;BME280;57735;56.264;43.898;2023-06-26T01:24:17;100588.44;;;12.60;78.94
70323;BME280;57735;56.264;43.898;2023-06-26T01:26:51;100593.16;;;12.66;79.01
70323;BME280;57735;56.264;43.898;2023-06-26T01:29:23;100584.66;;;12.79;79.54
70323;BME280;57735;56.264;43.898;2023-06-26T01:31:59;100587.38;;;12.87;78.96
70323;BME280;57735;56.264;43.898;2023-06-26T01:34:30;100594.25;;;12.89;78.55
70323;BME280;57735;56.264;43.898;2023-06-26T01:37:06;100596.41;;;12.94;78.65
70323;BME280;57735;56.264;43.898;2023-06-26T01:39:37;100601.13;;;13.00;78.21
70323;BME280;57735;56.264;43.898;2023-06-26T01:42:08;100587.25;;;13.05;77.95
70323;BME280;57735;56.264;43.898;2023-06-26T01:44:44;100593.31;;;13.15;77.77
70323;BME280;57735;56.264;43.898;2023-06-26T01:47:19;100588.97;;;13.22;77.78
70323;BME280;57735;56.264;43.898;2023-06-26T01:50:14;100594.34;;;13.30;77.65
70323;BME280;57735;56.264;43.898;2023-06-26T01:53:02;100590.16;;;13.36;77.21
70323;BME280;57735;56.264;43.898;2023-06-26T01:55:43;100596.66;;;13.41;77.03
70323;BME280;57735;56.264;43.898;2023-06-26T01:58:17;100592.50;;;13.47;76.60
70323;BME280;57735;56.264;43.898;2023-06-26T02:00:52;100601.72;;;13.52;76.19
70323;BME280;57735;56.264;43.898;2023-06-26T02:03:23;100594.84;;;13.58;76.07
70323;BME280;57735;56.264;43.898;2023-06-26T02:05:54;100595.84;;;13.65;75.86
70323;BME280;57735;56.264;43.898;2023-06-26T02:08:25;100603.22;;;13.71;75.46
70323;BME280;57735;56.264;43.898;2023-06-26T02:10:56;100596.16;;;13.78;75.21
70323;BME280;57735;56.264;43.898;2023-06-26T02:13:29;100594.66;;;13.84;75.24
70323;BME280;57735;56.264;43.898;2023-06-26T02:16:00;100599.84;;;13.93;74.85
70323;BME280;57735;56.264;43.898;2023-06-26T02:18:31;100594.63;;;14.00;74.63
70323;BME280;57735;56.264;43.898;2023-06-26T02:21:03;100602.00;;;14.06;74.68
70323;BME280;57735;56.264;43.898;2023-06-26T02:23:34;100602.97;;;14.13;74.51
70323;BME280;57735;56.264;43.898;2023-06-26T02:26:08;100595.09;;;14.20;74.50
70323;BME280;57735;56.264;43.898;2023-06-26T02:28:41;100591.53;;;14.27;74.31
70323;BME280;57735;56.264;43.898;2023-06-26T02:31:15;100595.22;;;14.35;74.08
70323;BME280;57735;56.264;43.898;2023-06-26T02:33:45;100597.25;;;14.41;73.99
70323;BME280;57735;56.264;43.898;2023-06-26T02:36:18;100592.34;;;14.44;73.86
70323;BME280;57735;56.264;43.898;2023-06-26T02:38:49;100587.16;;;14.51;73.89
70323;BME280;57735;56.264;43.898;2023-06-26T02:41:22;100593.66;;;14.56;73.49
70323;BME280;57735;56.264;43.898;2023-06-26T02:43:53;100593.97;;;14.61;73.20
70323;BME280;57735;56.264;43.898;2023-06-26T02:46:24;100608.53;;;14.67;73.11
70323;BME280;57735;56.264;43.898;2023-06-26T02:48:55;100599.59;;;14.75;72.88
70323;BME280;57735;56.264;43.898;2023-06-26T02:51:28;100602.25;;;14.83;72.40
70323;BME280;57735;56.264;43.898;2023-06-26T02:53:59;100598.03;;;14.88;72.09
70323;BME280;57735;56.264;43.898;2023-06-26T02:56:31;100592.63;;;14.96;72.01
70323;BME280;57735;56.264;43.898;2023-06-26T02:59:02;100591.91;;;15.02;71.77
70323;BME280;57735;56.264;43.898;2023-06-26T03:01:33;100593.03;;;15.08;71.72
70323;BME280;57735;56.264;43.898;2023-06-26T03:04:06;100595.84;;;15.15;71.60
70323;BME280;57735;56.264;43.898;2023-06-26T03:06:37;100590.78;;;15.20;71.18
70323;BME280;57735;56.264;43.898;2023-06-26T03:09:08;100596.44;;;15.25;71.19
70323;BME280;57735;56.264;43.898;2023-06-26T03:11:39;100600.28;;;15.30;71.03
70323;BME280;57735;56.264;43.898;2023-06-26T03:14:10;100595.88;;;15.38;70.66
70323;BME280;57735;56.264;43.898;2023-06-26T03:16:43;100603.03;;;15.45;70.89
70323;BME280;57735;56.264;43.898;2023-06-26T03:19:20;100607.69;;;15.51;70.51
70323;BME280;57735;56.264;43.898;2023-06-26T03:21:51;100603.94;;;15.60;70.05
70323;BME280;57735;56.264;43.898;2023-06-26T03:24:22;100603.88;;;15.68;70.01
70323;BME280;57735;56.264;43.898;2023-06-26T03:26:52;100597.41;;;15.78;69.76
70323;BME280;57735;56.264;43.898;2023-06-26T03:29:23;100598.34;;;15.85;69.29
70323;BME280;57735;56.264;43.898;2023-06-26T03:31:54;100602.63;;;15.94;68.90
70323;BME280;57735;56.264;43.898;2023-06-26T03:34:25;100604.22;;;16.03;69.06
70323;BME280;57735;56.264;43.898;2023-06-26T03:36:56;100602.47;;;16.10;68.57
70323;BME280;57735;56.264;43.898;2023-06-26T03:39:27;100598.50;;;16.21;68.22
70323;BME280;57735;56.264;43.898;2023-06-26T03:42:00;100601.75;;;16.31;67.77
70323;BME280;57735;56.264;43.898;2023-06-26T03:44:31;100596.72;;;16.42;67.28
70323;BME280;57735;56.264;43.898;2023-06-26T03:47:02;100599.78;;;16.54;67.07
70323;BME280;57735;56.264;43.898;2023-06-26T03:49:33;100597.13;;;16.69;66.41
70323;BME280;57735;56.264;43.898;2023-06-26T03:52:04;100605.16;;;16.84;65.30
70323;BME280;57735;56.264;43.898;2023-06-26T03:54:35;100604.94;;;17.00;64.81
70323;BME280;57735;56.264;43.898;2023-06-26T03:57:09;100607.59;;;17.15;64.47
70323;BME280;57735;56.264;43.898;2023-06-26T03:59:40;100603.16;;;17.28;63.80
70323;BME280;57735;56.264;43.898;2023-06-26T04:02:11;100602.06;;;17.44;62.93
70323;BME280;57735;56.264;43.898;2023-06-26T04:04:43;100607.63;;;17.57;62.07
70323;BME280;57735;56.264;43.898;2023-06-26T04:07:19;100601.97;;;17.73;61.94
70323;BME280;57735;56.264;43.898;2023-06-26T04:09:49;100603.75;;;17.88;61.92
70323;BME280;57735;56.264;43.898;2023-06-26T04:12:21;100607.56;;;18.00;61.35
70323;BME280;57735;56.264;43.898;2023-06-26T04:14:52;100607.66;;;18.13;60.93
70323;BME280;57735;56.264;43.898;2023-06-26T04:17:22;100602.38;;;18.26;60.39
70323;BME280;57735;56.264;43.898;2023-06-26T04:19:53;100605.97;;;18.40;59.72
70323;BME280;57735;56.264;43.898;2023-06-26T04:22:24;100609.59;;;18.54;59.26
70323;BME280;57735;56.264;43.898;2023-06-26T04:25:01;100612.38;;;18.67;58.55
70323;BME280;57735;56.264;43.898;2023-06-26T04:27:36;100609.09;;;18.78;57.37
70323;BME280;57735;56.264;43.898;2023-06-26T04:30:07;100610.41;;;18.89;56.27
70323;BME280;57735;56.264;43.898;2023-06-26T04:32:38;100607.69;;;18.95;55.55
70323;BME280;57735;56.264;43.898;2023-06-26T04:35:09;100616.47;;;19.04;55.71
70323;BME280;57735;56.264;43.898;2023-06-26T04:37:40;100612.13;;;19.09;54.39
70323;BME280;57735;56.264;43.898;2023-06-26T04:40:14;100614.00;;;19.15;53.35
70323;BME280;57735;56.264;43.898;2023-06-26T04:42:45;100610.28;;;19.23;52.60
70323;BME280;57735;56.264;43.898;2023-06-26T04:45:18;100606.97;;;19.28;51.58
70323;BME280;57735;56.264;43.898;2023-06-26T04:47:51;100611.56;;;19.34;51.02
70323;BME280;57735;56.264;43.898;2023-06-26T04:50:22;100623.88;;;19.43;51.35
70323;BME280;57735;56.264;43.898;2023-06-26T04:52:53;100619.31;;;19.50;50.74
70323;BME280;57735;56.264;43.898;2023-06-26T04:55:24;100623.72;;;19.58;50.73
70323;BME280;57735;56.264;43.898;2023-06-26T04:57:55;100624.09;;;19.61;48.62
70323;BME280;57735;56.264;43.898;2023-06-26T05:00:26;100623.91;;;19.63;48.06
70323;BME280;57735;56.264;43.898;2023-06-26T05:03:02;100621.63;;;19.66;48.08
70323;BME280;57735;56.264;43.898;2023-06-26T05:05:32;100624.75;;;19.70;48.15
70323;BME280;57735;56.264;43.898;2023-06-26T05:08:18;100620.41;;;19.75;47.76
70323;BME280;57735;56.264;43.898;2023-06-26T05:10:49;100638.06;;;19.84;47.93
70323;BME280;57735;56.264;43.898;2023-06-26T05:13:20;100624.94;;;19.95;47.55
70323;BME280;57735;56.264;43.898;2023-06-26T05:15:52;100634.31;;;19.99;46.99
70323;BME280;57735;56.264;43.898;2023-06-26T05:18:23;100639.31;;;20.02;46.79
70323;BME280;57735;56.264;43.898;2023-06-26T05:20:54;100635.56;;;20.03;46.47
70323;BME280;57735;56.264;43.898;2023-06-26T05:23:25;100640.56;;;20.06;46.92
70323;BME280;57735;56.264;43.898;2023-06-26T05:25:57;100636.00;;;20.06;46.69
70323;BME280;57735;56.264;43.898;2023-06-26T05:28:28;100640.38;;;20.07;46.78
70323;BME280;57735;56.264;43.898;2023-06-26T05:31:07;100646.63;;;20.08;46.82
70323;BME280;57735;56.264;43.898;2023-06-26T05:33:39;100637.44;;;20.09;46.92
70323;BME280;57735;56.264;43.898;2023-06-26T05:36:16;100634.09;;;20.13;46.49
70323;BME280;57735;56.264;43.898;2023-06-26T05:38:47;100635.78;;;20.08;47.03
70323;BME280;57735;56.264;43.898;2023-06-26T05:41:21;100637.44;;;20.15;47.09
70323;BME280;57735;56.264;43.898;2023-06-26T05:43:52;100632.03;;;20.22;47.17
70323;BME280;57735;56.264;43.898;2023-06-26T05:46:25;100630.31;;;20.28;46.78
70323;BME280;57735;56.264;43.898;2023-06-26T05:48:55;100628.28;;;20.36;47.15
70323;BME280;57735;56.264;43.898;2023-06-26T05:51:27;100623.06;;;20.41;46.91
70323;BME280;57735;56.264;43.898;2023-06-26T05:53:58;100630.31;;;20.47;46.59
70323;BME280;57735;56.264;43.898;2023-06-26T05:56:32;100625.94;;;20.53;46.81
70323;BME280;57735;56.264;43.898;2023-06-26T05:59:07;100622.41;;;20.59;46.59
70323;BME280;57735;56.264;43.898;2023-06-26T06:01:38;100627.34;;;20.62;46.21
70323;BME280;57735;56.264;43.898;2023-06-26T06:04:08;100624.66;;;20.69;46.54
70323;BME280;57735;56.264;43.898;2023-06-26T06:06:39;100629.38;;;20.80;46.41
70323;BME280;57735;56.264;43.898;2023-06-26T06:09:13;100623.47;;;20.96;45.36
70323;BME280;57735;56.264;43.898;2023-06-26T06:11:44;100615.13;;;21.04;45.16
70323;BME280;57735;56.264;43.898;2023-06-26T06:14:15;100621.09;;;21.13;44.90
70323;BME280;57735;56.264;43.898;2023-06-26T06:16:46;100617.50;;;21.32;43.90
70323;BME280;57735;56.264;43.898;2023-06-26T06:19:18;100619.75;;;21.42;44.03
70323;BME280;57735;56.264;43.898;2023-06-26T06:21:53;100617.63;;;21.44;42.60
70323;BME280;57735;56.264;43.898;2023-06-26T06:24:25;100619.31;;;21.45;42.92
70323;BME280;57735;56.264;43.898;2023-06-26T06:26:56;100620.09;;;21.45;42.77
70323;BME280;57735;56.264;43.898;2023-06-26T06:29:27;100614.13;;;21.37;42.84
70323;BME280;57735;56.264;43.898;2023-06-26T06:31:57;100617.56;;;21.50;42.92
70323;BME280;57735;56.264;43.898;2023-06-26T06:34:28;100608.97;;;21.60;42.89
70323;BME280;57735;56.264;43.898;2023-06-26T06:36:59;100618.69;;;21.68;42.78
70323;BME280;57735;56.264;43.898;2023-06-26T06:39:33;100616.78;;;21.75;42.64
70323;BME280;57735;56.264;43.898;2023-06-26T06:42:07;100616.06;;;21.86;42.92
70323;BME280;57735;56.264;43.898;2023-06-26T06:44:42;100615.78;;;21.69;41.93
70323;BME280;57735;56.264;43.898;2023-06-26T06:47:13;100613.69;;;21.71;40.82
70323;BME280;57735;56.264;43.898;2023-06-26T06:49:44;100600.66;;;21.80;41.89
70323;BME280;57735;56.264;43.898;2023-06-26T06:52:14;100603.28;;;21.93;41.16
70323;BME280;57735;56.264;43.898;2023-06-26T06:54:53;100604.44;;;22.04;40.98
70323;BME280;57735;56.264;43.898;2023-06-26T06:57:25;100614.13;;;22.18;40.77
70323;BME280;57735;56.264;43.898;2023-06-26T06:59:55;100608.41;;;22.26;39.82
70323;BME280;57735;56.264;43.898;2023-06-26T07:02:29;100612.03;;;22.38;40.13
70323;BME280;57735;56.264;43.898;2023-06-26T07:05:00;100604.78;;;22.50;39.90
70323;BME280;57735;56.264;43.898;2023-06-26T07:07:32;100608.88;;;22.59;39.31
70323;BME280;57735;56.264;43.898;2023-06-26T07:10:06;100608.19;;;22.64;38.12
70323;BME280;57735;56.264;43.898;2023-06-26T07:12:40;100609.03;;;22.64;38.43
70323;BME280;57735;56.264;43.898;2023-06-26T07:15:11;100601.56;;;22.42;39.32
70323;BME280;57735;56.264;43.898;2023-06-26T07:17:42;100611.22;;;22.38;39.16
70323;BME280;57735;56.264;43.898;2023-06-26T07:20:13;100609.41;;;22.50;39.16
70323;BME280;57735;56.264;43.898;2023-06-26T07:22:48;100606.06;;;22.66;38.67
70323;BME280;57735;56.264;43.898;2023-06-26T07:25:19;100615.59;;;22.75;38.69
70323;BME280;57735;56.264;43.898;2023-06-26T07:27:56;100619.16;;;22.76;38.35
70323;BME280;57735;56.264;43.898;2023-06-26T07:30:36;100606.31;;;22.83;38.23
70323;BME280;57735;56.264;43.898;2023-06-26T07:33:07;100600.34;;;22.74;37.65
70323;BME280;57735;56.264;43.898;2023-06-26T07:35:38;100609.78;;;22.35;39.37
70323;BME280;57735;56.264;43.898;2023-06-26T07:38:09;100594.13;;;22.31;38.85
70323;BME280;57735;56.264;43.898;2023-06-26T07:40:40;100602.00;;;22.20;38.86
70323;BME280;57735;56.264;43.898;2023-06-26T07:43:14;100604.13;;;22.37;38.87
70323;BME280;57735;56.264;43.898;2023-06-26T07:45:45;100599.19;;;22.63;38.76
70323;BME280;57735;56.264;43.898;2023-06-26T07:48:16;100610.47;;;22.85;37.63
70323;BME280;57735;56.264;43.898;2023-06-26T07:50:47;100597.53;;;22.99;36.96
70323;BME280;57735;56.264;43.898;2023-06-26T07:53:18;100594.28;;;22.79;36.62
70323;BME280;57735;56.264;43.898;2023-06-26T07:55:49;100598.81;;;22.96;36.65
70323;BME280;57735;56.264;43.898;2023-06-26T07:58:20;100595.97;;;23.21;37.27
70323;BME280;57735;56.264;43.898;2023-06-26T08:00:50;100602.25;;;23.52;36.10
70323;BME280;57735;56.264;43.898;2023-06-26T08:03:24;100598.63;;;23.70;34.65
70323;BME280;57735;56.264;43.898;2023-06-26T08:05:55;100597.94;;;23.86;35.03
70323;BME280;57735;56.264;43.898;2023-06-26T08:08:26;100598.66;;;23.93;35.48
70323;BME280;57735;56.264;43.898;2023-06-26T08:10:57;100593.81;;;23.95;35.90
70323;BME280;57735;56.264;43.898;2023-06-26T08:13:30;100600.88;;;23.61;36.12
70323;BME280;57735;56.264;43.898;2023-06-26T08:16:01;100596.38;;;23.37;36.59
70323;BME280;57735;56.264;43.898;2023-06-26T08:18:35;100591.88;;;23.60;36.11
70323;BME280;57735;56.264;43.898;2023-06-26T08:21:06;100598.53;;;23.76;35.49
70323;BME280;57735;56.264;43.898;2023-06-26T08:23:40;100587.81;;;23.63;35.21
70323;BME280;57735;56.264;43.898;2023-06-26T08:26:16;100589.84;;;23.56;35.95
70323;BME280;57735;56.264;43.898;2023-06-26T08:28:47;100584.63;;;23.66;35.24
70323;BME280;57735;56.264;43.898;2023-06-26T08:31:19;100581.50;;;23.39;35.34
70323;BME280;57735;56.264;43.898;2023-06-26T08:33:51;100585.56;;;23.18;36.44
70323;BME280;57735;56.264;43.898;2023-06-26T08:36:22;100581.09;;;22.94;36.96
70323;BME280;57735;56.264;43.898;2023-06-26T08:38:52;100591.56;;;22.79;37.46
70323;BME280;57735;56.264;43.898;2023-06-26T08:41:24;100590.47;;;22.61;37.33
70323;BME280;57735;56.264;43.898;2023-06-26T08:43:55;100593.19;;;22.43;37.62
70323;BME280;57735;56.264;43.898;2023-06-26T08:46:25;100594.09;;;22.74;37.23
70323;BME280;57735;56.264;43.898;2023-06-26T08:49:01;100580.53;;;23.04;36.53
70323;BME280;57735;56.264;43.898;2023-06-26T08:51:33;100579.31;;;23.29;36.35
70323;BME280;57735;56.264;43.898;2023-06-26T08:54:09;100581.91;;;23.54;36.03
70323;BME280;57735;56.264;43.898;2023-06-26T08:56:44;100583.72;;;23.84;35.36
70323;BME280;57735;56.264;43.898;2023-06-26T08:59:16;100570.47;;;24.11;35.68
70323;BME280;57735;56.264;43.898;2023-06-26T09:01:47;100574.72;;;24.30;34.58
70323;BME280;57735;56.264;43.898;2023-06-26T09:04:18;100569.84;;;24.55;34.46
70323;BME280;57735;56.264;43.898;2023-06-26T09:06:56;100570.69;;;24.84;34.02
70323;BME280;57735;56.264;43.898;2023-06-26T09:09:28;100574.56;;;25.00;32.45
70323;BME280;57735;56.264;43.898;2023-06-26T09:12:02;100575.03;;;25.09;32.72
70323;BME280;57735;56.264;43.898;2023-06-26T09:14:33;100578.34;;;25.11;31.99
70323;BME280;57735;56.264;43.898;2023-06-26T09:17:04;100564.59;;;25.06;32.02
70323;BME280;57735;56.264;43.898;2023-06-26T09:19:37;100567.56;;;25.04;32.05
70323;BME280;57735;56.264;43.898;2023-06-26T09:22:14;100563.91;;;24.98;31.31
70323;BME280;57735;56.264;43.898;2023-06-26T09:24:47;100560.66;;;25.13;31.82
70323;BME280;57735;56.264;43.898;2023-06-26T09:27:20;100562.81;;;25.11;29.16
70323;BME280;57735;56.264;43.898;2023-06-26T09:29:51;100569.94;;;25.00;28.88
70323;BME280;57735;56.264;43.898;2023-06-26T09:32:25;100558.59;;;24.92;29.36
70323;BME280;57735;56.264;43.898;2023-06-26T09:34:56;100555.97;;;24.97;30.30
70323;BME280;57735;56.264;43.898;2023-06-26T09:37:28;100564.22;;;24.74;31.42
70323;BME280;57735;56.264;43.898;2023-06-26T09:40:03;100558.31;;;24.65;31.57
70323;BME280;57735;56.264;43.898;2023-06-26T09:42:38;100566.66;;;24.35;32.09
70323;BME280;57735;56.264;43.898;2023-06-26T09:45:18;100552.03;;;24.64;32.12
70323;BME280;57735;56.264;43.898;2023-06-26T09:47:48;100558.94;;;24.55;31.83
70323;BME280;57735;56.264;43.898;2023-06-26T09:50:23;100556.22;;;24.84;31.03
70323;BME280;57735;56.264;43.898;2023-06-26T09:52:57;100560.94;;;25.00;30.77
70323;BME280;57735;56.264;43.898;2023-06-26T09:55:28;100554.78;;;25.21;29.63
70323;BME280;57735;56.264;43.898;2023-06-26T09:57:59;100549.59;;;25.36;28.60
70323;BME280;57735;56.264;43.898;2023-06-26T10:00:33;100551.16;;;25.32;27.47
70323;BME280;57735;56.264;43.898;2023-06-26T10:03:05;100550.59;;;25.47;28.67
70323;BME280;57735;56.264;43.898;2023-06-26T10:05:45;100544.34;;;25.47;27.92
70323;BME280;57735;56.264;43.898;2023-06-26T10:08:17;100548.78;;;25.53;28.75
70323;BME280;57735;56.264;43.898;2023-06-26T10:10:49;100539.69;;;25.64;28.58
70323;BME280;57735;56.264;43.898;2023-06-26T10:13:29;100541.44;;;25.70;28.04
70323;BME280;57735;56.264;43.898;2023-06-26T10:16:05;100543.25;;;25.81;28.26
70323;BME280;57735;56.264;43.898;2023-06-26T10:18:40;100544.97;;;25.54;28.22
70323;BME280;57735;56.264;43.898;2023-06-26T10:21:14;100537.50;;;25.16;28.54
70323;BME280;57735;56.264;43.898;2023-06-26T10:23:49;100542.09;;;24.98;29.08
70323;BME280;57735;56.264;43.898;2023-06-26T10:26:23;100537.56;;;24.64;29.70
70323;BME280;57735;56.264;43.898;2023-06-26T10:29:13;100534.69;;;24.30;29.95
70323;BME280;57735;56.264;43.898;2023-06-26T10:31:51;100546.66;;;24.18;30.52
70323;BME280;57735;56.264;43.898;2023-06-26T10:34:26;100546.69;;;23.94;31.06
70323;BME280;57735;56.264;43.898;2023-06-26T10:37:00;100550.69;;;23.80;31.53
70323;BME280;57735;56.264;43.898;2023-06-26T10:39:49;100549.50;;;23.99;31.85
70323;BME280;57735;56.264;43.898;2023-06-26T10:42:34;100538.59;;;23.99;31.38
70323;BME280;57735;56.264;43.898;2023-06-26T10:45:32;100541.56;;;24.33;30.19
70323;BME280;57735;56.264;43.898;2023-06-26T10:48:04;100535.34;;;24.61;29.07
70323;BME280;57735;56.264;43.898;2023-06-26T10:50:35;100538.06;;;24.89;28.52
70323;BME280;57735;56.264;43.898;2023-06-26T10:53:23;100530.38;;;25.15;28.14
70323;BME280;57735;56.264;43.898;2023-06-26T10:56:08;100527.94;;;25.47;28.28
70323;BME280;57735;56.264;43.898;2023-06-26T11:01:15;100518.84;;;25.91;27.34
70323;BME280;57735;56.264;43.898;2023-06-26T11:04:00;100520.88;;;26.01;27.52
70323;BME280;57735;56.264;43.898;2023-06-26T11:06:37;100516.97;;;26.14;27.10
70323;BME280;57735;56.264;43.898;2023-06-26T11:09:14;100517.25;;;26.34;27.15
70323;BME280;57735;56.264;43.898;2023-06-26T11:11:55;100523.44;;;26.46;26.75
70323;BME280;57735;56.264;43.898;2023-06-26T11:14:30;100527.31;;;26.12;27.01
70323;BME280;57735;56.264;43.898;2023-06-26T11:17:03;100528.94;;;25.74;27.45
70323;BME280;57735;56.264;43.898;2023-06-26T11:19:34;100525.13;;;25.42;27.94
70323;BME280;57735;56.264;43.898;2023-06-26T11:22:06;100529.56;;;25.31;27.50
70323;BME280;57735;56.264;43.898;2023-06-26T11:24:38;100532.72;;;25.56;27.46
70323;BME280;57735;56.264;43.898;2023-06-26T11:27:09;100519.00;;;25.68;26.81
70323;BME280;57735;56.264;43.898;2023-06-26T11:29:47;100521.34;;;25.76;27.61
70323;BME280;57735;56.264;43.898;2023-06-26T11:32:19;100521.97;;;25.83;27.66
70323;BME280;57735;56.264;43.898;2023-06-26T11:34:49;100522.81;;;25.84;27.25
70323;BME280;57735;56.264;43.898;2023-06-26T11:37:21;100521.81;;;25.90;27.13
70323;BME280;57735;56.264;43.898;2023-06-26T11:39:54;100520.56;;;25.97;26.91
70323;BME280;57735;56.264;43.898;2023-06-26T11:42:25;100516.69;;;25.93;26.93
70323;BME280;57735;56.264;43.898;2023-06-26T11:44:59;100510.34;;;26.10;27.35
70323;BME280;57735;56.264;43.898;2023-06-26T11:47:31;100506.16;;;26.24;26.62
70323;BME280;57735;56.264;43.898;2023-06-26T11:50:04;100513.25;;;26.41;27.01
70323;BME280;57735;56.264;43.898;2023-06-26T11:52:35;100507.63;;;26.31;26.50
70323;BME280;57735;56.264;43.898;2023-06-26T11:55:07;100513.84;;;26.05;27.34
70323;BME280;57735;56.264;43.898;2023-06-26T11:57:41;100512.47;;;25.69;28.31
70323;BME280;57735;56.264;43.898;2023-06-26T12:00:14;100521.22;;;25.37;28.70
70323;BME280;57735;56.264;43.898;2023-06-26T12:02:47;100514.19;;;25.25;29.05
70323;BME280;57735;56.264;43.898;2023-06-26T12:05:19;100516.47;;;25.78;27.82
70323;BME280;57735;56.264;43.898;2023-06-26T12:07:50;100513.53;;;26.23;27.30
70323;BME280;57735;56.264;43.898;2023-06-26T12:10:22;100509.94;;;26.88;26.49
70323;BME280;57735;56.264;43.898;2023-06-26T12:12:54;100514.41;;;27.53;24.34
70323;BME280;57735;56.264;43.898;2023-06-26T12:15:29;100505.16;;;27.96;24.19
70323;BME280;57735;56.264;43.898;2023-06-26T12:17:59;100504.88;;;28.45;24.38
70323;BME280;57735;56.264;43.898;2023-06-26T12:20:30;100506.91;;;28.80;22.35
70323;BME280;57735;56.264;43.898;2023-06-26T12:23:11;100494.34;;;29.09;22.30
70323;BME280;57735;56.264;43.898;2023-06-26T12:25:43;100506.69;;;29.68;22.60
70323;BME280;57735;56.264;43.898;2023-06-26T12:28:18;100502.53;;;30.06;21.75
70323;BME280;57735;56.264;43.898;2023-06-26T12:31:15;100494.28;;;28.84;22.84
70323;BME280;57735;56.264;43.898;2023-06-26T12:33:47;100502.09;;;27.93;24.23
70323;BME280;57735;56.264;43.898;2023-06-26T12:36:18;100499.88;;;27.21;25.29
70323;BME280;57735;56.264;43.898;2023-06-26T12:38:49;100500.44;;;26.69;25.96
70323;BME280;57735;56.264;43.898;2023-06-26T12:41:24;100492.06;;;26.32;26.18
70323;BME280;57735;56.264;43.898;2023-06-26T12:44:00;100491.59;;;26.18;26.75
70323;BME280;57735;56.264;43.898;2023-06-26T12:46:41;100496.97;;;28.06;24.15
70323;BME280;57735;56.264;43.898;2023-06-26T12:49:16;100492.16;;;29.52;21.89
70323;BME280;57735;56.264;43.898;2023-06-26T12:51:47;100488.78;;;30.75;21.01
70323;BME280;57735;56.264;43.898;2023-06-26T12:54:19;100493.16;;;31.20;20.64
70323;BME280;57735;56.264;43.898;2023-06-26T12:56:51;100491.06;;;29.28;22.55
70323;BME280;57735;56.264;43.898;2023-06-26T12:59:22;100495.09;;;28.12;23.96
70323;BME280;57735;56.264;43.898;2023-06-26T13:01:53;100490.91;;;27.25;25.31
70323;BME280;57735;56.264;43.898;2023-06-26T13:04:29;100492.44;;;26.62;25.84
70323;BME280;57735;56.264;43.898;2023-06-26T13:07:00;100494.13;;;26.03;26.58
70323;BME280;57735;56.264;43.898;2023-06-26T13:09:34;100487.72;;;25.59;27.13
70323;BME280;57735;56.264;43.898;2023-06-26T13:12:06;100484.53;;;25.28;29.33